South Petherton, United Kingdom
Current Conditions -  °F | °C
As of 7:50 PM on Sunday 23 Nov 2014 (Local Time) from EGDY Reporting Station
Clear Clear  
Wind Chill: 37°   Ceiling: Unl
Heat Index: 37°   Visibility: 2.5mi
Dew Point: 37°   Wind: 2mph
Humidity: 100%   Direction: 270°W
Pressure: 30.15"   Gusts: NA
Location:  50.95°N, 2.81°W
Report Text: EGDY 231950Z AUTO 27002KT 4100 NCD 03/03 Q1021
Loading
Personal Weather Stations






























Interactive Weather Map New forecast layout! Learn more

10-Day Weather Forecast

Advertisements
Track Severe Weather on mobile